createdAt,value
2023-05-29T00:02:27.948Z,17.6
2023-05-29T00:07:38.103Z,17.3
2023-05-29T00:12:38.099Z,17.3
2023-05-29T00:18:27.833Z,17.4
2023-05-29T00:23:38.101Z,17.6
2023-05-29T00:28:38.141Z,17.3
2023-05-29T00:34:27.810Z,17.4
2023-05-29T00:39:38.118Z,17.3
2023-05-29T00:44:38.140Z,17.2
2023-05-29T00:50:27.829Z,17.2
2023-05-29T00:55:38.121Z,17
2023-05-29T01:01:27.884Z,17.1
2023-05-29T01:06:27.827Z,17.2
2023-05-29T01:11:27.854Z,17.2
2023-05-29T01:22:27.830Z,16.8
2023-05-29T01:27:38.121Z,16.7
2023-05-29T01:33:27.830Z,16.6
2023-05-29T01:47:27.861Z,16.4
2023-05-29T01:58:27.850Z,16.2
2023-05-29T02:03:38.156Z,16.1
2023-05-29T02:08:38.164Z,16.1
2023-05-29T02:24:38.132Z,15.7
2023-05-29T02:29:38.170Z,15.7
2023-05-29T02:35:27.824Z,15.6
2023-05-29T02:40:27.848Z,15.7
2023-05-29T02:45:27.845Z,15.6
2023-05-29T02:50:38.098Z,15.5
2023-05-29T02:56:27.857Z,15.5
2023-05-29T03:01:38.129Z,15.5
2023-05-29T03:06:38.114Z,15.5
2023-05-29T03:11:38.127Z,15.4
2023-05-29T03:17:27.877Z,15.2
2023-05-29T03:28:27.870Z,15.2
2023-05-29T03:33:38.138Z,15.2
2023-05-29T03:39:27.857Z,14.9
2023-05-29T03:44:38.161Z,15
2023-05-29T03:49:38.170Z,14.9
2023-05-29T03:55:27.850Z,14.9
2023-05-29T04:05:38.146Z,14.8
2023-05-29T04:10:38.182Z,14.7
2023-05-29T04:16:32.906Z,14.9
2023-05-29T04:21:27.891Z,15
2023-05-29T04:31:38.274Z,15.3
2023-05-29T04:36:48.579Z,15.5
2023-05-29T04:42:27.888Z,15.7
2023-05-29T04:47:38.178Z,16.1
2023-05-29T04:52:38.160Z,16.6
2023-05-29T04:58:27.858Z,17
2023-05-29T05:03:27.892Z,17.5
2023-05-29T05:13:38.162Z,18.6
2023-05-29T05:24:27.861Z,19.6
2023-05-29T05:29:28.485Z,20
2023-05-29T05:34:27.901Z,20.4
2023-05-29T05:39:38.159Z,21.1
2023-05-29T05:45:27.892Z,21.2
2023-05-29T05:50:38.135Z,21.7
2023-05-29T05:55:38.179Z,22.4
2023-05-29T06:01:28.972Z,22.9
2023-05-29T06:17:28.123Z,24.3
2023-05-29T06:22:38.176Z,24.7
2023-05-29T06:27:38.177Z,24.5
2023-05-29T06:32:38.267Z,24.9
2023-05-29T06:37:38.209Z,25.3
2023-05-29T06:43:27.907Z,25.8
2023-05-29T06:48:38.158Z,26.5
2023-05-29T06:53:38.189Z,27
2023-05-29T06:58:38.178Z,27.4
2023-05-29T07:04:27.915Z,27.9
2023-05-29T07:09:38.184Z,28.2
2023-05-29T07:14:38.354Z,28.8
2023-05-29T07:19:38.214Z,29
2023-05-29T07:25:27.920Z,29.5
2023-05-29T07:30:27.911Z,29.6
2023-05-29T07:35:27.930Z,29.7
2023-05-29T07:40:27.935Z,29.9
2023-05-29T07:45:38.226Z,30.1
2023-05-29T07:51:27.939Z,30.6
2023-05-29T08:07:38.213Z,31.8
2023-05-29T08:12:38.202Z,31.8
2023-05-29T08:18:27.913Z,31.6
2023-05-29T08:23:27.951Z,31.6
2023-05-29T08:28:40.103Z,31.8
2023-05-29T08:34:27.977Z,31.7
2023-05-29T08:39:38.250Z,32.2
2023-05-29T08:45:27.929Z,32.8
2023-05-29T08:50:27.967Z,32.7
2023-05-29T08:55:38.233Z,32.2
2023-05-29T09:01:28.005Z,32.5
2023-05-29T09:06:38.245Z,32.6
2023-05-29T09:11:38.255Z,33.3
2023-05-29T09:16:38.265Z,33.7
2023-05-29T09:22:27.974Z,34
2023-05-29T09:32:38.250Z,33.8
2023-05-29T09:38:38.427Z,32.7
2023-05-29T09:43:27.996Z,33.3
2023-05-29T09:48:38.273Z,33
2023-05-29T09:53:38.276Z,34.2
2023-05-29T10:04:38.280Z,34.9
2023-05-29T10:10:28.111Z,33.8
2023-05-29T10:15:38.305Z,33.4
2023-05-29T10:21:28.002Z,32.4
2023-05-29T10:26:38.279Z,32.3
2023-05-29T10:37:38.271Z,31.8
2023-05-29T10:42:38.278Z,31.2
2023-05-29T10:48:28.022Z,32.3
2023-05-29T10:53:38.293Z,31.6
2023-05-29T10:59:28.003Z,31
2023-05-29T11:04:28.097Z,31
2023-05-29T11:09:28.011Z,31
2023-05-29T11:14:28.022Z,30.7
2023-05-29T11:19:38.238Z,30.7
2023-05-29T11:24:38.284Z,30.2
2023-05-29T11:29:38.314Z,30.4
2023-05-29T11:34:38.326Z,30.7
2023-05-29T11:45:38.305Z,29
2023-05-29T11:51:28.078Z,28.9
2023-05-29T11:56:38.289Z,28.5
2023-05-29T12:01:38.328Z,28
2023-05-29T12:07:38.320Z,27.8
2023-05-29T12:17:48.622Z,26.9
2023-05-29T12:23:28.028Z,26.5
2023-05-29T12:28:28.054Z,26.7
2023-05-29T12:33:38.362Z,26.7
2023-05-29T12:39:28.036Z,26.5
2023-05-29T12:44:28.068Z,26.1
2023-05-29T12:49:38.321Z,26.6
2023-05-29T12:54:38.335Z,26.7
2023-05-29T13:00:28.066Z,26.3
2023-05-29T13:05:28.110Z,26
2023-05-29T13:10:38.332Z,25.4
2023-05-29T13:15:38.339Z,25.7
2023-05-29T13:21:28.045Z,25.6
2023-05-29T13:31:38.369Z,25
2023-05-29T13:37:28.070Z,25.2
2023-05-29T13:42:28.069Z,25.5
2023-05-29T13:47:38.392Z,25.4
2023-05-29T13:53:28.085Z,25
2023-05-29T13:58:28.087Z,25.1
2023-05-29T14:03:28.177Z,25.1
2023-05-29T14:08:38.365Z,25.4
2023-05-29T14:14:28.099Z,25.1
2023-05-29T14:19:38.383Z,24.8
2023-05-29T14:25:28.170Z,24.5
2023-05-29T14:30:38.362Z,25.1
2023-05-29T14:36:28.140Z,25.3
2023-05-29T14:41:38.368Z,25.3
2023-05-29T14:47:28.147Z,25.5
2023-05-29T14:52:38.386Z,25.3
2023-05-29T14:58:28.091Z,25.6
2023-05-29T15:03:28.217Z,25.1
2023-05-29T15:08:38.399Z,24.8
2023-05-29T15:14:28.107Z,24.8
2023-05-29T15:19:28.108Z,24.6
2023-05-29T15:24:38.409Z,24.6
2023-05-29T15:29:38.398Z,24.6
2023-05-29T15:35:28.107Z,24.7
2023-05-29T15:40:38.441Z,24.7
2023-05-29T15:46:28.267Z,24.4
2023-05-29T15:51:38.387Z,24.1
2023-05-29T15:56:38.395Z,24.4
2023-05-29T16:07:28.115Z,23.5
2023-05-29T16:23:28.122Z,23.5
2023-05-29T16:28:38.422Z,23.6
2023-05-29T16:34:28.123Z,23.8
2023-05-29T16:44:28.152Z,23.1
2023-05-29T16:49:38.406Z,23.2
2023-05-29T17:00:28.158Z,22.9
2023-05-29T17:05:28.149Z,23
2023-05-29T17:10:28.155Z,22.9
2023-05-29T17:15:38.415Z,22.5
2023-05-29T17:20:38.510Z,22.6
2023-05-29T17:25:38.533Z,22.6
2023-05-29T17:31:28.169Z,22.6
2023-05-29T17:36:28.161Z,22.3
2023-05-29T17:41:28.148Z,22.2
2023-05-29T17:46:28.209Z,22.1
2023-05-29T17:51:28.159Z,22.3
2023-05-29T17:56:38.406Z,22
2023-05-29T18:01:38.498Z,21.9
2023-05-29T18:07:28.137Z,21.6
2023-05-29T18:12:43.972Z,21.5
2023-05-29T18:17:28.154Z,21.4
2023-05-29T18:27:28.196Z,21.6
2023-05-29T18:32:28.189Z,21.5
2023-05-29T18:37:38.458Z,21.5
2023-05-29T18:43:28.176Z,21.4
2023-05-29T18:48:28.181Z,21.3
2023-05-29T18:53:38.448Z,21.1
2023-05-29T18:59:28.190Z,20.9
2023-05-29T19:04:38.416Z,21.1
2023-05-29T19:09:38.481Z,20.6
2023-05-29T19:15:28.216Z,20.4
2023-05-29T19:20:38.466Z,20.1
2023-05-29T19:30:38.482Z,20
2023-05-29T19:36:28.189Z,19.8
2023-05-29T19:41:38.429Z,19.2
2023-05-29T19:47:28.227Z,19.1
2023-05-29T19:52:28.184Z,18.9
2023-05-29T19:57:38.454Z,19.1
2023-05-29T20:02:38.512Z,18.9
2023-05-29T20:07:38.464Z,18.7
2023-05-29T20:13:28.248Z,18.7
2023-05-29T20:24:28.208Z,18.6
2023-05-29T20:29:38.482Z,18.4
2023-05-29T20:35:28.258Z,18.4
2023-05-29T20:40:38.463Z,18.3
2023-05-29T20:46:28.287Z,18.4
2023-05-29T20:51:38.494Z,18.4
2023-05-29T20:57:28.208Z,18.1
2023-05-29T21:02:38.557Z,18
2023-05-29T21:08:28.194Z,17.7
2023-05-29T21:13:28.206Z,17.6
2023-05-29T21:18:38.507Z,17.6
2023-05-29T21:24:28.245Z,17.5
2023-05-29T21:29:38.486Z,17.4
2023-05-29T21:35:28.202Z,17.5
2023-05-29T21:40:38.488Z,17.2
2023-05-29T21:45:38.605Z,17.1
2023-05-29T21:51:28.202Z,17.2
2023-05-29T21:56:28.210Z,16.9
2023-05-29T22:01:38.528Z,16.8
2023-05-29T22:17:28.270Z,16.7
2023-05-29T22:22:38.496Z,16.8
2023-05-29T22:27:38.586Z,16.9
2023-05-29T22:33:28.217Z,16.8
2023-05-29T22:38:38.498Z,16.8
2023-05-29T22:49:28.242Z,16.3
2023-05-29T22:54:38.478Z,16.2
2023-05-29T22:59:38.515Z,16
2023-05-29T23:04:38.519Z,16.1
2023-05-29T23:10:28.217Z,16.1
2023-05-29T23:15:38.548Z,15.9
2023-05-29T23:21:28.245Z,15.7
2023-05-29T23:26:38.491Z,15.5
2023-05-29T23:32:28.221Z,15.5
2023-05-29T23:37:28.253Z,15.2
2023-05-29T23:42:38.542Z,15
2023-05-29T23:48:28.223Z,14.8
2023-05-29T23:59:28.211Z,14.6
